Time,TemperatureF,DewpointF,PressureIn,WindDirection,WindDirectionDegrees,WindSpeedMPH,WindSpeedGustMPH,Humidity,HourlyPrecipIn,Conditions,Clouds,dailyrainin,SoftwareType,DateUTC
2013-01-28 00:04:00,60.0,53.0,30.33,NNE,30,1.0,0.0,78,0.00,,,0.00,,2013-01-28 05:04:00,
2013-01-28 00:12:00,60.0,53.0,30.33,NNE,30,1.0,0.0,78,0.00,,,0.00,,2013-01-28 05:12:00,
2013-01-28 00:22:00,60.0,53.0,30.33,NE,45,0.0,0.0,78,0.00,,,0.00,,2013-01-28 05:22:00,
2013-01-28 00:32:00,60.0,53.0,30.33,NE,35,0.0,0.0,78,0.00,,,0.00,,2013-01-28 05:32:00,
2013-01-28 00:42:00,60.0,53.0,30.33,NE,35,0.0,0.0,78,0.00,,,0.00,,2013-01-28 05:42:00,
2013-01-28 00:52:00,60.0,53.0,30.33,NE,35,0.0,0.0,77,0.00,,,0.00,,2013-01-28 05:52:00,
2013-01-28 01:02:00,60.0,53.0,30.33,NNE,25,0.0,0.0,77,0.00,,,0.00,,2013-01-28 06:02:00,
2013-01-28 01:11:00,60.0,53.0,30.33,NNE,25,0.0,0.0,77,0.00,,,0.00,,2013-01-28 06:11:00,
2013-01-28 01:22:00,60.0,53.0,30.33,ENE,65,0.0,0.0,78,0.00,,,0.00,,2013-01-28 06:22:00,
2013-01-28 01:32:00,60.0,53.0,30.33,ENE,60,0.0,2.0,78,0.00,,,0.00,,2013-01-28 06:32:00,
2013-01-28 01:42:00,60.0,53.0,30.33,ENE,60,0.0,2.0,78,0.00,,,0.00,,2013-01-28 06:42:00,
2013-01-28 01:52:00,60.0,53.0,30.33,ENE,60,0.0,0.0,78,0.00,,,0.00,,2013-01-28 06:52:00,
2013-01-28 02:03:00,60.0,53.0,30.33,ENE,65,0.0,0.0,78,0.00,,,0.00,,2013-01-28 07:03:00,
2013-01-28 02:11:00,60.0,53.0,30.33,ENE,65,0.0,0.0,78,0.00,,,0.00,,2013-01-28 07:11:00,
2013-01-28 02:22:00,60.0,53.0,30.33,NE,55,0.0,0.0,79,0.00,,,0.00,,2013-01-28 07:22:00,
2013-01-28 02:32:00,60.0,53.0,30.33,NE,50,0.0,0.0,79,0.00,,,0.00,,2013-01-28 07:32:00,
2013-01-28 02:42:00,60.0,53.0,30.33,NE,50,0.0,0.0,79,0.00,,,0.00,,2013-01-28 07:42:00,
2013-01-28 02:51:00,60.0,53.0,30.30,NE,50,0.0,1.0,79,0.00,,,0.00,,2013-01-28 07:51:00,
2013-01-28 03:01:00,60.0,54.0,30.33,NE,55,0.0,0.0,80,0.00,,,0.00,,2013-01-28 08:01:00,
2013-01-28 03:11:00,60.0,54.0,30.33,NE,55,0.0,0.0,80,0.00,,,0.00,,2013-01-28 08:11:00,
2013-01-28 03:21:00,60.0,54.0,30.33,NE,55,0.0,2.0,80,0.00,,,0.00,,2013-01-28 08:21:00,
2013-01-28 03:32:00,59.0,53.0,30.30,NE,50,0.0,0.0,81,0.00,,,0.00,,2013-01-28 08:32:00,
2013-01-28 03:42:00,59.0,53.0,30.30,NE,50,0.0,0.0,81,0.00,,,0.00,,2013-01-28 08:42:00,
2013-01-28 03:52:00,59.0,53.0,30.30,NE,50,0.0,0.0,81,0.00,,,0.00,,2013-01-28 08:52:00,
2013-01-28 04:02:00,59.0,53.0,30.30,NE,50,0.0,0.0,81,0.00,,,0.00,,2013-01-28 09:02:00,
2013-01-28 04:11:00,59.0,53.0,30.30,NE,50,0.0,0.0,81,0.00,,,0.00,,2013-01-28 09:11:00,
2013-01-28 04:22:00,59.0,53.0,30.30,NE,50,0.0,0.0,81,0.00,,,0.00,,2013-01-28 09:22:00,
2013-01-28 04:32:00,59.0,54.0,30.30,NE,50,0.0,0.0,82,0.00,,,0.00,,2013-01-28 09:32:00,
2013-01-28 04:42:00,59.0,54.0,30.30,NE,50,0.0,0.0,82,0.00,,,0.00,,2013-01-28 09:42:00,
2013-01-28 04:52:00,58.0,53.0,30.30,NE,50,0.0,0.0,82,0.00,,,0.00,,2013-01-28 09:52:00,
2013-01-28 05:02:00,58.0,53.0,30.30,NE,50,0.0,0.0,82,0.00,,,0.00,,2013-01-28 10:02:00,
2013-01-28 05:11:00,58.0,53.0,30.30,NE,50,0.0,0.0,82,0.00,,,0.00,,2013-01-28 10:11:00,
2013-01-28 05:21:00,58.0,53.0,30.30,NE,50,0.0,0.0,82,0.00,,,0.00,,2013-01-28 10:21:00,
2013-01-28 05:32:00,57.0,52.0,30.30,NE,50,0.0,0.0,82,0.00,,,0.00,,2013-01-28 10:32:00,
2013-01-28 05:42:00,57.0,52.0,30.30,NE,50,0.0,0.0,82,0.00,,,0.00,,2013-01-28 10:42:00,
2013-01-28 05:52:00,57.0,52.0,30.30,NE,50,0.0,0.0,82,0.00,,,0.00,,2013-01-28 10:52:00,
2013-01-28 06:02:00,57.0,52.0,30.30,NE,50,0.0,0.0,83,0.00,,,0.00,,2013-01-28 11:02:00,
2013-01-28 06:11:00,57.0,52.0,30.30,NE,50,0.0,0.0,83,0.00,,,0.00,,2013-01-28 11:11:00,
2013-01-28 06:22:00,57.0,52.0,30.30,NE,50,0.0,0.0,83,0.00,,,0.00,,2013-01-28 11:22:00,
2013-01-28 06:32:00,57.0,52.0,30.30,NE,50,0.0,0.0,83,0.00,,,0.00,,2013-01-28 11:32:00,
2013-01-28 06:42:00,57.0,52.0,30.30,NE,50,0.0,0.0,83,0.00,,,0.00,,2013-01-28 11:42:00,
2013-01-28 06:52:00,57.0,52.0,30.30,NE,50,0.0,0.0,83,0.00,,,0.00,,2013-01-28 11:52:00,
2013-01-28 07:03:00,56.0,51.0,30.30,NE,50,0.0,0.0,84,0.00,,,0.00,,2013-01-28 12:03:00,
2013-01-28 07:12:00,56.0,51.0,30.30,NE,50,0.0,0.0,84,0.00,,,0.00,,2013-01-28 12:12:00,
2013-01-28 07:23:00,56.0,51.0,30.30,NE,50,0.0,0.0,84,0.00,,,0.00,,2013-01-28 12:23:00,
2013-01-28 07:33:00,56.0,51.0,30.33,NE,50,0.0,0.0,84,0.00,,,0.00,,2013-01-28 12:33:00,
2013-01-28 07:42:00,56.0,51.0,30.33,NE,50,0.0,0.0,84,0.00,,,0.00,,2013-01-28 12:42:00,
2013-01-28 07:53:00,57.0,52.0,30.33,NE,50,0.0,0.0,84,0.00,,,0.00,,2013-01-28 12:53:00,
2013-01-28 08:03:00,57.0,52.0,30.33,NE,50,0.0,0.0,84,0.00,,,0.00,,2013-01-28 13:03:00,
2013-01-28 08:12:00,57.0,52.0,30.33,NE,50,0.0,0.0,84,0.00,,,0.00,,2013-01-28 13:12:00,
2013-01-28 08:23:00,57.0,52.0,30.33,NE,50,0.0,0.0,84,0.00,,,0.00,,2013-01-28 13:23:00,
2013-01-28 08:33:00,57.0,52.0,30.33,NE,50,0.0,0.0,84,0.00,,,0.00,,2013-01-28 13:33:00,
2013-01-28 08:42:00,57.0,52.0,30.33,NE,50,0.0,0.0,84,0.00,,,0.00,,2013-01-28 13:42:00,
2013-01-28 08:52:00,58.0,53.0,30.33,NE,50,0.0,0.0,84,0.00,,,0.00,,2013-01-28 13:52:00,
2013-01-28 09:03:00,58.0,53.0,30.36,NW,320,0.0,0.0,84,0.00,,,0.00,,2013-01-28 14:03:00,
2013-01-28 09:12:00,58.0,53.0,30.36,NW,320,0.0,0.0,84,0.00,,,0.00,,2013-01-28 14:12:00,
2013-01-28 09:23:00,58.0,53.0,30.36,NW,320,0.0,0.0,84,0.00,,,0.00,,2013-01-28 14:23:00,
2013-01-28 09:33:00,59.0,54.0,30.36,NW,325,0.0,0.0,83,0.00,,,0.00,,2013-01-28 14:33:00,
2013-01-28 09:43:00,59.0,54.0,30.36,NW,325,0.0,0.0,83,0.00,,,0.00,,2013-01-28 14:43:00,
2013-01-28 09:52:00,59.0,54.0,30.36,NW,325,0.0,0.0,83,0.00,,,0.00,,2013-01-28 14:52:00,
2013-01-28 10:03:00,59.0,54.0,30.36,NW,325,0.0,0.0,83,0.00,,,0.00,,2013-01-28 15:03:00,
2013-01-28 10:13:00,59.0,54.0,30.36,NW,325,0.0,0.0,83,0.00,,,0.00,,2013-01-28 15:13:00,
2013-01-28 10:33:00,62.0,56.0,30.36,NE,50,0.0,2.0,80,0.00,,,0.00,,2013-01-28 15:33:00,
2013-01-28 10:43:00,62.0,56.0,30.36,NE,50,0.0,2.0,80,0.00,,,0.00,,2013-01-28 15:43:00,
2013-01-28 10:53:00,62.0,56.0,30.36,NE,50,0.0,2.0,80,0.00,,,0.00,,2013-01-28 15:53:00,
2013-01-28 11:04:00,68.0,57.0,30.36,NE,50,0.0,3.0,67,0.00,,,0.00,,2013-01-28 16:04:00,
2013-01-28 11:12:00,68.0,57.0,30.36,NE,50,0.0,3.0,67,0.00,,,0.00,,2013-01-28 16:12:00,
2013-01-28 11:22:00,68.0,57.0,30.36,NE,50,0.0,3.0,67,0.00,,,0.00,,2013-01-28 16:22:00,
2013-01-28 11:33:00,70.0,57.0,30.33,East,88,2.0,5.0,64,0.00,,,0.00,,2013-01-28 16:33:00,
2013-01-28 11:43:00,70.0,57.0,30.33,East,88,2.0,5.0,64,0.00,,,0.00,,2013-01-28 16:43:00,
2013-01-28 11:53:00,72.0,57.0,30.33,East,85,5.0,6.0,60,0.00,,,0.00,,2013-01-28 16:53:00,
2013-01-28 12:02:00,72.0,57.0,30.33,East,85,5.0,6.0,60,0.00,,,0.00,,2013-01-28 17:02:00,
2013-01-28 12:12:00,72.0,57.0,30.33,East,85,5.0,6.0,60,0.00,,,0.00,,2013-01-28 17:12:00,
2013-01-28 12:23:00,73.0,58.0,30.33,East,100,2.0,3.0,59,0.00,,,0.00,,2013-01-28 17:23:00,
2013-01-28 12:33:00,72.0,56.0,30.33,NE,55,6.0,8.0,58,0.00,,,0.00,,2013-01-28 17:33:00,
2013-01-28 12:42:00,72.0,56.0,30.33,NE,55,6.0,8.0,58,0.00,,,0.00,,2013-01-28 17:42:00,
2013-01-28 12:53:00,72.0,56.0,30.30,East,90,7.0,7.0,58,0.00,,,0.00,,2013-01-28 17:53:00,
2013-01-28 13:03:00,73.0,57.0,30.30,ENE,75,6.0,7.0,58,0.00,,,0.00,,2013-01-28 18:03:00,
2013-01-28 13:12:00,73.0,57.0,30.30,ENE,75,6.0,7.0,58,0.00,,,0.00,,2013-01-28 18:12:00,
2013-01-28 13:23:00,73.0,58.0,30.30,ENE,70,5.0,6.0,59,0.00,,,0.00,,2013-01-28 18:23:00,
2013-01-28 13:33:00,73.0,58.0,30.30,ENE,70,5.0,6.0,59,0.00,,,0.00,,2013-01-28 18:33:00,
2013-01-28 13:42:00,73.0,58.0,30.30,ENE,70,5.0,6.0,59,0.00,,,0.00,,2013-01-28 18:42:00,
2013-01-28 13:52:00,73.0,58.0,30.27,East,95,5.0,6.0,60,0.00,,,0.00,,2013-01-28 18:52:00,
2013-01-28 14:03:00,73.0,58.0,30.27,ENE,65,6.0,6.0,60,0.00,,,0.00,,2013-01-28 19:03:00,
2013-01-28 14:12:00,73.0,58.0,30.27,ENE,65,6.0,6.0,60,0.00,,,0.00,,2013-01-28 19:12:00,
2013-01-28 14:22:00,73.0,58.0,30.27,ENE,65,6.0,6.0,60,0.00,,,0.00,,2013-01-28 19:22:00,
2013-01-28 14:33:00,73.0,57.0,30.24,East,95,6.0,7.0,58,0.00,,,0.00,,2013-01-28 19:33:00,
2013-01-28 14:42:00,73.0,57.0,30.24,East,95,6.0,7.0,58,0.00,,,0.00,,2013-01-28 19:42:00,
2013-01-28 14:53:00,73.0,57.0,30.24,East,85,6.0,7.0,58,0.00,,,0.00,,2013-01-28 19:53:00,
2013-01-28 15:03:00,73.0,57.0,30.24,ESE,110,6.0,6.0,58,0.00,,,0.00,,2013-01-28 20:03:00,
2013-01-28 15:12:00,73.0,57.0,30.24,ESE,110,6.0,6.0,58,0.00,,,0.00,,2013-01-28 20:12:00,
2013-01-28 15:22:00,73.0,57.0,30.24,ESE,110,6.0,6.0,58,0.00,,,0.00,,2013-01-28 20:22:00,
2013-01-28 15:33:00,72.0,57.0,30.24,East,90,5.0,8.0,59,0.00,,,0.00,,2013-01-28 20:33:00,
2013-01-28 15:42:00,72.0,57.0,30.24,East,90,5.0,8.0,59,0.00,,,0.00,,2013-01-28 20:42:00,
2013-01-28 15:53:00,72.0,57.0,30.24,East,80,7.0,7.0,59,0.00,,,0.00,,2013-01-28 20:53:00,
2013-01-28 16:03:00,73.0,58.0,30.24,ENE,70,8.0,10.0,59,0.00,,,0.00,,2013-01-28 21:03:00,
2013-01-28 16:12:00,73.0,58.0,30.24,ENE,70,8.0,10.0,59,0.00,,,0.00,,2013-01-28 21:12:00,
2013-01-28 16:23:00,73.0,58.0,30.24,ENE,70,8.0,10.0,59,0.00,,,0.00,,2013-01-28 21:23:00,
2013-01-28 16:33:00,72.0,57.0,30.24,East,80,6.0,7.0,60,0.00,,,0.00,,2013-01-28 21:33:00,
2013-01-28 16:43:00,72.0,57.0,30.24,East,80,6.0,7.0,60,0.00,,,0.00,,2013-01-28 21:43:00,
2013-01-28 16:53:00,72.0,58.0,30.24,East,80,6.0,6.0,61,0.00,,,0.00,,2013-01-28 21:53:00,
2013-01-28 17:02:00,72.0,58.0,30.24,ENE,60,3.0,6.0,62,0.00,,,0.00,,2013-01-28 22:02:00,
2013-01-28 17:12:00,72.0,58.0,30.24,ENE,60,3.0,6.0,62,0.00,,,0.00,,2013-01-28 22:12:00,
2013-01-28 17:23:00,72.0,58.0,30.24,ENE,60,3.0,6.0,62,0.00,,,0.00,,2013-01-28 22:23:00,
2013-01-28 17:33:00,72.0,58.0,30.24,East,90,1.0,6.0,61,0.00,,,0.00,,2013-01-28 22:33:00,
2013-01-28 17:42:00,72.0,58.0,30.24,East,90,1.0,6.0,61,0.00,,,0.00,,2013-01-28 22:42:00,
2013-01-28 17:52:00,71.0,58.0,30.24,East,90,2.0,2.0,63,0.00,,,0.00,,2013-01-28 22:52:00,
2013-01-28 18:03:00,70.0,57.0,30.24,ENE,70,0.0,2.0,64,0.00,,,0.00,,2013-01-28 23:03:00,
2013-01-28 18:12:00,70.0,57.0,30.24,ENE,70,0.0,2.0,64,0.00,,,0.00,,2013-01-28 23:12:00,
2013-01-28 18:22:00,69.0,58.0,30.24,East,80,1.0,2.0,67,0.00,,,0.00,,2013-01-28 23:22:00,
2013-01-28 18:32:00,69.0,58.0,30.24,ENE,70,2.0,3.0,68,0.00,,,0.00,,2013-01-28 23:32:00,
2013-01-28 18:42:00,69.0,58.0,30.24,ENE,70,2.0,3.0,68,0.00,,,0.00,,2013-01-28 23:42:00,
2013-01-28 18:52:00,67.0,58.0,30.24,ENE,70,1.0,0.0,72,0.00,,,0.00,,2013-01-28 23:52:00,
2013-01-28 19:02:00,67.0,58.0,30.27,ENE,70,0.0,0.0,72,0.00,,,0.00,,2013-01-29 00:02:00,
2013-01-28 19:12:00,67.0,58.0,30.27,ENE,70,0.0,0.0,72,0.00,,,0.00,,2013-01-29 00:12:00,
2013-01-28 19:22:00,67.0,58.0,30.27,ENE,70,0.0,0.0,72,0.00,,,0.00,,2013-01-29 00:22:00,
2013-01-28 19:33:00,67.0,58.0,30.27,ENE,70,0.0,0.0,72,0.00,,,0.00,,2013-01-29 00:33:00,
2013-01-28 19:42:00,67.0,58.0,30.27,ENE,70,0.0,0.0,72,0.00,,,0.00,,2013-01-29 00:42:00,
2013-01-28 19:52:00,67.0,58.0,30.27,ENE,70,0.0,0.0,72,0.00,,,0.00,,2013-01-29 00:52:00,
2013-01-28 20:02:00,67.0,58.0,30.27,NE,55,0.0,2.0,73,0.00,,,0.00,,2013-01-29 01:02:00,
2013-01-28 20:12:00,67.0,58.0,30.27,NE,55,0.0,2.0,73,0.00,,,0.00,,2013-01-29 01:12:00,
2013-01-28 20:23:00,67.0,58.0,30.27,NE,55,0.0,0.0,73,0.00,,,0.00,,2013-01-29 01:23:00,
2013-01-28 20:32:00,67.0,58.0,30.27,NE,55,0.0,0.0,73,0.00,,,0.00,,2013-01-29 01:32:00,
2013-01-28 20:42:00,67.0,58.0,30.27,NE,55,0.0,0.0,73,0.00,,,0.00,,2013-01-29 01:42:00,
2013-01-28 20:52:00,67.0,58.0,30.27,NE,55,0.0,0.0,73,0.00,,,0.00,,2013-01-29 01:52:00,
2013-01-28 21:02:00,67.0,58.0,30.27,NE,55,0.0,0.0,73,0.00,,,0.00,,2013-01-29 02:02:00,
2013-01-28 21:12:00,67.0,58.0,30.27,NE,55,0.0,0.0,73,0.00,,,0.00,,2013-01-29 02:12:00,
2013-01-28 21:22:00,66.0,57.0,30.27,NE,55,0.0,0.0,73,0.00,,,0.00,,2013-01-29 02:22:00,
2013-01-28 21:33:00,66.0,58.0,30.27,NE,55,0.0,0.0,75,0.00,,,0.00,,2013-01-29 02:33:00,
2013-01-28 21:42:00,66.0,58.0,30.27,NE,55,0.0,0.0,75,0.00,,,0.00,,2013-01-29 02:42:00,
2013-01-28 21:52:00,66.0,58.0,30.27,NE,55,0.0,0.0,75,0.00,,,0.00,,2013-01-29 02:52:00,
2013-01-28 22:03:00,65.0,57.0,30.27,NE,55,0.0,0.0,76,0.00,,,0.00,,2013-01-29 03:03:00,
2013-01-28 22:12:00,65.0,57.0,30.27,NE,55,0.0,0.0,76,0.00,,,0.00,,2013-01-29 03:12:00,
2013-01-28 22:22:00,65.0,57.0,30.27,NE,55,0.0,0.0,76,0.00,,,0.00,,2013-01-29 03:22:00,
2013-01-28 22:32:00,65.0,57.0,30.27,NE,55,0.0,0.0,76,0.00,,,0.00,,2013-01-29 03:32:00,
2013-01-28 22:42:00,65.0,57.0,30.27,NE,55,0.0,0.0,76,0.00,,,0.00,,2013-01-29 03:42:00,
2013-01-28 22:52:00,65.0,58.0,30.27,NE,55,0.0,0.0,77,0.00,,,0.00,,2013-01-29 03:52:00,
2013-01-28 23:03:00,65.0,58.0,30.27,NE,55,0.0,0.0,77,0.00,,,0.00,,2013-01-29 04:03:00,
2013-01-28 23:12:00,65.0,58.0,30.27,NE,55,0.0,0.0,77,0.00,,,0.00,,2013-01-29 04:12:00,
2013-01-28 23:22:00,65.0,58.0,30.27,NE,55,0.0,0.0,77,0.00,,,0.00,,2013-01-29 04:22:00,
2013-01-28 23:32:00,65.0,58.0,30.24,NE,55,0.0,0.0,77,0.00,,,0.00,,2013-01-29 04:32:00,
2013-01-28 23:42:00,65.0,58.0,30.24,NE,55,0.0,0.0,77,0.00,,,0.00,,2013-01-29 04:42:00,
2013-01-28 23:52:00,65.0,58.0,30.24,NE,55,0.0,0.0,77,0.00,,,0.00,,2013-01-29 04:52:00,